PWSweather.com
Personal Weather Stations
Station Observations
PICKERING
North Yorkshire, PickeringGB

North YorkshirePickeringGB

Lat: 54.2494, Lon: -0.7725

Elevation: 192

Station Type: Oregon Scientific WMR100

http://www.yorkshirewalker.co.uk/weather/

High Low Average
Temperature 56.7°F13.7°C 48.9°F9.4°C 52.1°F11.2°C
Dew Point 46.4°F8.0°C 42.8°F6.0°C 44.8°F7.1°C
Winds 17.6 mph 28.3 kmh 4.2 mph 6.8 kmh 10.0 mph E16.1 kmh E
Wind Gusts 24.2 mph38.9 kmh 8.1 mph13.0 kmh 16.0 mph25.7 kmh
Humidity 84% 68% 75%
Pressure 30.01 in1016.3 mb 29.89 in1012.2 mb -
Precipitation 0.46 in11.7 mm - -
Hour Temp Dew Point Humidity Winds Wind Gusts Pressure Precip Precip Rate Daily Precip Total
12:05 AM 53.4°F11.9°C 46.4°F8.0°C 76% 9.4 mph NE15.1 kmh NE 12.1 mph19.5 kmh 30.01 in1016.3 mb 0.00 in0.0 mm 0.00 in0.0 mm 0.00 in0.0 mm
01:00 AM 53.4°F11.9°C 46.4°F8.0°C 76% 9.4 mph NE15.1 kmh NE 11.9 mph19.2 kmh 30.01 in1016.3 mb 0.00 in0.0 mm 0.00 in0.0 mm 0.00 in0.0 mm
01:05 AM 53.4°F11.9°C 46.4°F8.0°C 76% 10.2 mph NE16.4 kmh NE 15.4 mph24.8 kmh 30.01 in1016.3 mb 0.00 in0.0 mm 0.00 in0.0 mm 0.00 in0.0 mm
01:10 AM 53.2°F11.8°C 46.4°F8.0°C 76% 11.4 mph NNE18.3 kmh NNE 15.4 mph24.8 kmh 30.01 in1016.3 mb 0.00 in0.0 mm 0.00 in0.0 mm 0.00 in0.0 mm
01:15 AM 53.2°F11.8°C 46.4°F8.0°C 76% 10.2 mph NNE16.4 kmh NNE 15.4 mph24.8 kmh 30.01 in1016.3 mb 0.00 in0.0 mm 0.00 in0.0 mm 0.00 in0.0 mm
01:20 AM 53.2°F11.8°C 46.4°F8.0°C 76% 8.2 mph NNE13.2 kmh NNE 12.1 mph19.5 kmh 30.01 in1016.3 mb 0.00 in0.0 mm 0.00 in0.0 mm 0.00 in0.0 mm
01:25 AM 53.1°F11.7°C 46.4°F8.0°C 76% 9.2 mph NNE14.8 kmh NNE 12.8 mph20.6 kmh 30.01 in1016.3 mb 0.00 in0.0 mm 0.00 in0.0 mm 0.00 in0.0 mm
01:30 AM 53.1°F11.7°C 46.4°F8.0°C 76% 8.3 mph N13.4 kmh N 12.8 mph20.6 kmh 30.01 in1016.3 mb 0.00 in0.0 mm 0.00 in0.0 mm 0.00 in0.0 mm
01:35 AM 53.1°F11.7°C 46.4°F8.0°C 76% 8.8 mph N14.2 kmh N 14.1 mph22.7 kmh 30.01 in1016.3 mb 0.00 in0.0 mm 0.00 in0.0 mm 0.00 in0.0 mm
01:40 AM 52.9°F11.6°C 46.4°F8.0°C 76% 8.8 mph N14.2 kmh N 14.1 mph22.7 kmh 29.98 in1015.2 mb 0.00 in0.0 mm 0.00 in0.0 mm 0.00 in0.0 mm
01:45 AM 52.9°F11.6°C 46.4°F8.0°C 76% 8.2 mph NNE13.2 kmh NNE 14.8 mph23.8 kmh 29.98 in1015.2 mb 0.00 in0.0 mm 0.00 in0.0 mm 0.00 in0.0 mm
01:50 AM 52.9°F11.6°C 46.4°F8.0°C 76% 10.3 mph NNE16.6 kmh NNE 14.8 mph23.8 kmh 29.98 in1015.2 mb 0.00 in0.0 mm 0.00 in0.0 mm 0.00 in0.0 mm
01:55 AM 52.9°F11.6°C 46.4°F8.0°C 76% 10.8 mph N17.4 kmh N 14.1 mph22.7 kmh 30.01 in1016.3 mb 0.00 in0.0 mm 0.00 in0.0 mm 0.00 in0.0 mm
02:00 AM 52.9°F11.6°C 46.4°F8.0°C 76% 10.1 mph NNE16.3 kmh NNE 13.0 mph20.9 kmh 30.01 in1016.3 mb 0.00 in0.0 mm 0.00 in0.0 mm 0.00 in0.0 mm
02:05 AM 52.9°F11.6°C 46.4°F8.0°C 76% 9.5 mph NNE15.3 kmh NNE 13.0 mph20.9 kmh 30.01 in1016.3 mb 0.00 in0.0 mm 0.00 in0.0 mm 0.00 in0.0 mm
02:10 AM 52.7°F11.5°C 46.4°F8.0°C 76% 10.1 mph NNE16.3 kmh NNE 13.9 mph22.4 kmh 30.01 in1016.3 mb 0.00 in0.0 mm 0.00 in0.0 mm 0.00 in0.0 mm
02:15 AM 52.7°F11.5°C 46.4°F8.0°C 76% 9.6 mph NNE15.4 kmh NNE 13.9 mph22.4 kmh 30.01 in1016.3 mb 0.00 in0.0 mm 0.00 in0.0 mm 0.00 in0.0 mm
02:20 AM 52.7°F11.5°C 46.4°F8.0°C 76% 8.8 mph NE14.2 kmh NE 12.5 mph20.1 kmh 30.01 in1016.3 mb 0.00 in0.0 mm 0.00 in0.0 mm 0.00 in0.0 mm
02:25 AM 52.7°F11.5°C 46.4°F8.0°C 76% 11.3 mph NNE18.2 kmh NNE 17.7 mph28.5 kmh 30.01 in1016.3 mb 0.00 in0.0 mm 0.00 in0.0 mm 0.00 in0.0 mm
02:30 AM 52.7°F11.5°C 46.4°F8.0°C 76% 12.1 mph NNE19.5 kmh NNE 17.7 mph28.5 kmh 30.01 in1016.3 mb 0.00 in0.0 mm 0.00 in0.0 mm 0.00 in0.0 mm
02:35 AM 52.7°F11.5°C 46.4°F8.0°C 76% 10.8 mph NNE17.4 kmh NNE 15.2 mph24.5 kmh 30.01 in1016.3 mb 0.00 in0.0 mm 0.00 in0.0 mm 0.00 in0.0 mm
02:40 AM 52.7°F11.5°C 46.4°F8.0°C 76% 11.6 mph NNE18.7 kmh NNE 15.2 mph24.5 kmh 30.01 in1016.3 mb 0.00 in0.0 mm 0.00 in0.0 mm 0.00 in0.0 mm
02:45 AM 52.5°F11.4°C 44.6°F7.0°C 76% 10.6 mph NNE17.1 kmh NNE 14.5 mph23.3 kmh 30.01 in1016.3 mb 0.00 in0.0 mm 0.00 in0.0 mm 0.00 in0.0 mm
02:50 AM 52.5°F11.4°C 44.6°F7.0°C 76% 10.4 mph NNE16.7 kmh NNE 15.7 mph25.3 kmh 30.01 in1016.3 mb 0.00 in0.0 mm 0.00 in0.0 mm 0.00 in0.0 mm
02:55 AM 52.5°F11.4°C 44.6°F7.0°C 76% 9.8 mph N15.8 kmh N 15.7 mph25.3 kmh 30.01 in1016.3 mb 0.00 in0.0 mm 0.00 in0.0 mm 0.00 in0.0 mm
03:00 AM 52.5°F11.4°C 44.6°F7.0°C 76% 9.9 mph N15.9 kmh N 17.7 mph28.5 kmh 30.01 in1016.3 mb 0.00 in0.0 mm 0.00 in0.0 mm 0.00 in0.0 mm
03:10 AM 52.5°F11.4°C 44.6°F7.0°C 76% 10.7 mph NNE17.2 kmh NNE 15.4 mph24.8 kmh 30.01 in1016.3 mb 0.00 in0.0 mm 0.00 in0.0 mm 0.00 in0.0 mm
03:15 AM 52.5°F11.4°C 44.6°F7.0°C 76% 11.8 mph NNE19.0 kmh NNE 17.9 mph28.8 kmh 30.01 in1016.3 mb 0.00 in0.0 mm 0.00 in0.0 mm 0.00 in0.0 mm
03:20 AM 52.5°F11.4°C 44.6°F7.0°C 76% 10.1 mph NNE16.3 kmh NNE 17.9 mph28.8 kmh 30.01 in1016.3 mb 0.00 in0.0 mm 0.00 in0.0 mm 0.00 in0.0 mm
03:25 AM 52.5°F11.4°C 44.6°F7.0°C 76% 9.8 mph NNE15.8 kmh NNE 15.4 mph24.8 kmh 30.01 in1016.3 mb 0.00 in0.0 mm 0.00 in0.0 mm 0.00 in0.0 mm
03:30 AM 52.5°F11.4°C 44.6°F7.0°C 76% 10.7 mph NNE17.2 kmh NNE 19.7 mph31.7 kmh 30.01 in1016.3 mb 0.00 in0.0 mm 0.00 in0.0 mm 0.00 in0.0 mm
03:35 AM 52.5°F11.4°C 44.6°F7.0°C 76% 9.5 mph N15.3 kmh N 19.7 mph31.7 kmh 30.01 in1016.3 mb 0.00 in0.0 mm 0.00 in0.0 mm 0.00 in0.0 mm
03:40 AM 52.3°F11.3°C 44.6°F7.0°C 76% 7.4 mph N11.9 kmh N 12.1 mph19.5 kmh 30.01 in1016.3 mb 0.00 in0.0 mm 0.00 in0.0 mm 0.00 in0.0 mm
03:45 AM 52.3°F11.3°C 44.6°F7.0°C 76% 8.4 mph N13.5 kmh N 17.7 mph28.5 kmh 30.01 in1016.3 mb 0.00 in0.0 mm 0.00 in0.0 mm 0.00 in0.0 mm
03:50 AM 52.3°F11.3°C 44.6°F7.0°C 76% 9.2 mph N14.8 kmh N 17.7 mph28.5 kmh 30.01 in1016.3 mb 0.00 in0.0 mm 0.00 in0.0 mm 0.00 in0.0 mm
03:55 AM 52.3°F11.3°C 44.6°F7.0°C 75% 11.6 mph NNE18.7 kmh NNE 17.7 mph28.5 kmh 29.98 in1015.2 mb 0.00 in0.0 mm 0.00 in0.0 mm 0.00 in0.0 mm
04:00 AM 52.3°F11.3°C 44.6°F7.0°C 75% 11.1 mph NE17.9 kmh NE 17.0 mph27.4 kmh 29.98 in1015.2 mb 0.00 in0.0 mm 0.00 in0.0 mm 0.00 in0.0 mm
04:05 AM 52.2°F11.2°C 44.6°F7.0°C 76% 8.6 mph NNE13.8 kmh NNE 12.5 mph20.1 kmh 29.98 in1015.2 mb 0.00 in0.0 mm 0.00 in0.0 mm 0.00 in0.0 mm
04:10 AM 52.2°F11.2°C 44.6°F7.0°C 76% 8.6 mph NNE13.8 kmh NNE 11.9 mph19.2 kmh 29.98 in1015.2 mb 0.00 in0.0 mm 0.00 in0.0 mm 0.00 in0.0 mm
04:15 AM 52.2°F11.2°C 44.6°F7.0°C 76% 8.6 mph NNE13.8 kmh NNE 12.3 mph19.8 kmh 29.98 in1015.2 mb 0.00 in0.0 mm 0.00 in0.0 mm 0.00 in0.0 mm
04:20 AM 52.2°F11.2°C 44.6°F7.0°C 76% 8.9 mph NNE14.3 kmh NNE 12.8 mph20.6 kmh 29.98 in1015.2 mb 0.00 in0.0 mm 0.00 in0.0 mm 0.00 in0.0 mm
04:25 AM 52.2°F11.2°C 44.6°F7.0°C 76% 9.4 mph NNE15.1 kmh NNE 12.8 mph20.6 kmh 29.98 in1015.2 mb 0.00 in0.0 mm 0.00 in0.0 mm 0.00 in0.0 mm
04:30 AM 52.2°F11.2°C 44.6°F7.0°C 75% 9.7 mph NNE15.6 kmh NNE 13.9 mph22.4 kmh 29.98 in1015.2 mb 0.00 in0.0 mm 0.00 in0.0 mm 0.00 in0.0 mm
04:35 AM 52.0°F11.1°C 44.6°F7.0°C 76% 9.5 mph NNE15.3 kmh NNE 13.9 mph22.4 kmh 29.98 in1015.2 mb 0.00 in0.0 mm 0.00 in0.0 mm 0.00 in0.0 mm
04:40 AM 52.0°F11.1°C 44.6°F7.0°C 76% 8.7 mph NNE14.0 kmh NNE 15.7 mph25.3 kmh 29.98 in1015.2 mb 0.00 in0.0 mm 0.00 in0.0 mm 0.00 in0.0 mm
04:45 AM 52.0°F11.1°C 44.6°F7.0°C 76% 9.6 mph NNE15.4 kmh NNE 15.7 mph25.3 kmh 29.98 in1015.2 mb 0.00 in0.0 mm 0.00 in0.0 mm 0.00 in0.0 mm
04:50 AM 52.0°F11.1°C 44.6°F7.0°C 76% 9.6 mph NNE15.4 kmh NNE 15.7 mph25.3 kmh 29.98 in1015.2 mb 0.00 in0.0 mm 0.00 in0.0 mm 0.00 in0.0 mm
04:55 AM 52.0°F11.1°C 44.6°F7.0°C 75% 8.4 mph NNE13.5 kmh NNE 12.5 mph20.1 kmh 30.01 in1016.3 mb 0.00 in0.0 mm 0.00 in0.0 mm 0.00 in0.0 mm
05:00 AM 52.0°F11.1°C 44.6°F7.0°C 75% 11.3 mph NNE18.2 kmh NNE 19.2 mph30.9 kmh 30.01 in1016.3 mb 0.00 in0.0 mm 0.00 in0.0 mm 0.00 in0.0 mm
05:05 AM 52.0°F11.1°C 44.6°F7.0°C 75% 12.9 mph N20.8 kmh N 19.2 mph30.9 kmh 30.01 in1016.3 mb 0.00 in0.0 mm 0.00 in0.0 mm 0.00 in0.0 mm
05:10 AM 52.0°F11.1°C 44.6°F7.0°C 75% 10.3 mph N16.6 kmh N 15.9 mph25.6 kmh 30.01 in1016.3 mb 0.00 in0.0 mm 0.00 in0.0 mm 0.00 in0.0 mm
05:15 AM 52.0°F11.1°C 44.6°F7.0°C 75% 8.6 mph NNE13.8 kmh NNE 13.0 mph20.9 kmh 30.01 in1016.3 mb 0.00 in0.0 mm 0.00 in0.0 mm 0.00 in0.0 mm
05:20 AM 52.0°F11.1°C 44.6°F7.0°C 75% 8.4 mph NNE13.5 kmh NNE 12.5 mph20.1 kmh 30.01 in1016.3 mb 0.00 in0.0 mm 0.00 in0.0 mm 0.00 in0.0 mm
05:25 AM 52.0°F11.1°C 44.6°F7.0°C 75% 8.3 mph N13.4 kmh N 12.5 mph20.1 kmh 30.01 in1016.3 mb 0.00 in0.0 mm 0.00 in0.0 mm 0.00 in0.0 mm
05:30 AM 52.0°F11.1°C 44.6°F7.0°C 75% 9.4 mph N15.1 kmh N 18.8 mph30.3 kmh 30.01 in1016.3 mb 0.00 in0.0 mm 0.00 in0.0 mm 0.00 in0.0 mm
05:35 AM 51.8°F11.0°C 44.6°F7.0°C 75% 11.3 mph NNE18.2 kmh NNE 19.5 mph31.4 kmh 30.01 in1016.3 mb 0.00 in0.0 mm 0.00 in0.0 mm 0.00 in0.0 mm
05:40 AM 52.0°F11.1°C 44.6°F7.0°C 75% 10.1 mph NE16.3 kmh NE 19.5 mph31.4 kmh 30.01 in1016.3 mb 0.00 in0.0 mm 0.00 in0.0 mm 0.00 in0.0 mm
05:45 AM 52.0°F11.1°C 44.6°F7.0°C 75% 8.9 mph NE14.3 kmh NE 12.5 mph20.1 kmh 30.01 in1016.3 mb 0.00 in0.0 mm 0.00 in0.0 mm 0.00 in0.0 mm
05:50 AM 52.0°F11.1°C 44.6°F7.0°C 75% 9.4 mph NNE15.1 kmh NNE 16.3 mph26.2 kmh 30.01 in1016.3 mb 0.00 in0.0 mm 0.00 in0.0 mm 0.00 in0.0 mm
05:55 AM 52.0°F11.1°C 44.6°F7.0°C 75% 10.0 mph NNE16.1 kmh NNE 16.3 mph26.2 kmh 30.01 in1016.3 mb 0.00 in0.0 mm 0.00 in0.0 mm 0.00 in0.0 mm
06:00 AM 52.2°F11.2°C 44.6°F7.0°C 74% 11.3 mph NE18.2 kmh NE 17.7 mph28.5 kmh 30.01 in1016.3 mb 0.00 in0.0 mm 0.00 in0.0 mm 0.00 in0.0 mm
06:05 AM 52.2°F11.2°C 44.6°F7.0°C 74% 11.6 mph NE18.7 kmh NE 17.7 mph28.5 kmh 30.01 in1016.3 mb 0.00 in0.0 mm 0.00 in0.0 mm 0.00 in0.0 mm
06:10 AM 52.2°F11.2°C 44.6°F7.0°C 74% 12.1 mph NNE19.5 kmh NNE 18.8 mph30.3 kmh 29.98 in1015.2 mb 0.00 in0.0 mm 0.00 in0.0 mm 0.00 in0.0 mm
06:15 AM 52.2°F11.2°C 44.6°F7.0°C 74% 11.3 mph NNE18.2 kmh NNE 20.8 mph33.5 kmh 29.98 in1015.2 mb 0.00 in0.0 mm 0.00 in0.0 mm 0.00 in0.0 mm
06:20 AM 52.2°F11.2°C 44.6°F7.0°C 74% 11.6 mph N18.7 kmh N 20.8 mph33.5 kmh 29.98 in1015.2 mb 0.00 in0.0 mm 0.00 in0.0 mm 0.00 in0.0 mm
06:25 AM 52.2°F11.2°C 44.6°F7.0°C 74% 12.2 mph N19.6 kmh N 15.4 mph24.8 kmh 29.98 in1015.2 mb 0.00 in0.0 mm 0.00 in0.0 mm 0.00 in0.0 mm
06:30 AM 52.3°F11.3°C 44.6°F7.0°C 74% 12.3 mph N19.8 kmh N 16.6 mph26.7 kmh 29.98 in1015.2 mb 0.00 in0.0 mm 0.00 in0.0 mm 0.00 in0.0 mm
06:35 AM 52.2°F11.2°C 44.6°F7.0°C 74% 11.9 mph N19.2 kmh N 16.6 mph26.7 kmh 29.98 in1015.2 mb 0.00 in0.0 mm 0.00 in0.0 mm 0.00 in0.0 mm
06:40 AM 52.3°F11.3°C 44.6°F7.0°C 74% 12.2 mph N19.6 kmh N 19.2 mph30.9 kmh 29.98 in1015.2 mb 0.00 in0.0 mm 0.00 in0.0 mm 0.00 in0.0 mm
06:45 AM 52.3°F11.3°C 44.6°F7.0°C 74% 12.8 mph N20.6 kmh N 19.2 mph30.9 kmh 29.98 in1015.2 mb 0.00 in0.0 mm 0.00 in0.0 mm 0.00 in0.0 mm
06:50 AM 52.2°F11.2°C 44.6°F7.0°C 73% 14.6 mph N23.5 kmh N 23.0 mph37.0 kmh 29.98 in1015.2 mb 0.00 in0.0 mm 0.00 in0.0 mm 0.00 in0.0 mm
06:55 AM 52.3°F11.3°C 44.6°F7.0°C 73% 14.7 mph N23.7 kmh N 23.0 mph37.0 kmh 29.98 in1015.2 mb 0.00 in0.0 mm 0.00 in0.0 mm 0.00 in0.0 mm
07:00 AM 52.2°F11.2°C 44.6°F7.0°C 73% 13.1 mph NNE21.1 kmh NNE 23.0 mph37.0 kmh 29.98 in1015.2 mb 0.00 in0.0 mm 0.00 in0.0 mm 0.00 in0.0 mm
07:05 AM 52.2°F11.2°C 44.6°F7.0°C 73% 12.7 mph NNE20.4 kmh NNE 23.0 mph37.0 kmh 29.98 in1015.2 mb 0.00 in0.0 mm 0.00 in0.0 mm 0.00 in0.0 mm
07:10 AM 52.2°F11.2°C 44.6°F7.0°C 73% 12.8 mph NE20.6 kmh NE 19.0 mph30.6 kmh 30.01 in1016.3 mb 0.00 in0.0 mm 0.00 in0.0 mm 0.00 in0.0 mm
07:15 AM 52.2°F11.2°C 44.6°F7.0°C 73% 11.2 mph NE18.0 kmh NE 19.0 mph30.6 kmh 30.01 in1016.3 mb 0.00 in0.0 mm 0.00 in0.0 mm 0.00 in0.0 mm
07:20 AM 52.2°F11.2°C 44.6°F7.0°C 73% 11.7 mph NNE18.8 kmh NNE 17.4 mph28.0 kmh 30.01 in1016.3 mb 0.00 in0.0 mm 0.00 in0.0 mm 0.00 in0.0 mm
07:25 AM 52.2°F11.2°C 44.6°F7.0°C 73% 12.5 mph NNE20.1 kmh NNE 17.4 mph28.0 kmh 30.01 in1016.3 mb 0.00 in0.0 mm 0.00 in0.0 mm 0.00 in0.0 mm
07:30 AM 52.3°F11.3°C 44.6°F7.0°C 73% 11.0 mph NNE17.7 kmh NNE 15.2 mph24.5 kmh 30.01 in1016.3 mb 0.00 in0.0 mm 0.00 in0.0 mm 0.00 in0.0 mm
07:35 AM 52.3°F11.3°C 44.6°F7.0°C 73% 10.4 mph NNE16.7 kmh NNE 15.4 mph24.8 kmh 30.01 in1016.3 mb 0.00 in0.0 mm 0.00 in0.0 mm 0.00 in0.0 mm
07:40 AM 52.3°F11.3°C 44.6°F7.0°C 73% 10.0 mph NE16.1 kmh NE 15.4 mph24.8 kmh 30.01 in1016.3 mb 0.00 in0.0 mm 0.00 in0.0 mm 0.00 in0.0 mm
07:45 AM 52.3°F11.3°C 44.6°F7.0°C 73% 10.9 mph NE17.5 kmh NE 15.7 mph25.3 kmh 30.01 in1016.3 mb 0.00 in0.0 mm 0.00 in0.0 mm 0.00 in0.0 mm
07:50 AM 52.3°F11.3°C 44.6°F7.0°C 72% 12.3 mph NNE19.8 kmh NNE 23.7 mph38.1 kmh 30.01 in1016.3 mb 0.00 in0.0 mm 0.00 in0.0 mm 0.00 in0.0 mm
07:55 AM 52.5°F11.4°C 44.6°F7.0°C 72% 13.3 mph N21.4 kmh N 23.7 mph38.1 kmh 30.01 in1016.3 mb 0.00 in0.0 mm 0.00 in0.0 mm 0.00 in0.0 mm
08:00 AM 52.5°F11.4°C 44.6°F7.0°C 72% 14.0 mph N22.5 kmh N 23.7 mph38.1 kmh 30.01 in1016.3 mb 0.00 in0.0 mm 0.00 in0.0 mm 0.00 in0.0 mm
08:05 AM 52.5°F11.4°C 44.6°F7.0°C 72% 13.5 mph NNE21.7 kmh NNE 21.9 mph35.2 kmh 30.01 in1016.3 mb 0.00 in0.0 mm 0.00 in0.0 mm 0.00 in0.0 mm
08:10 AM 52.7°F11.5°C 44.6°F7.0°C 72% 13.1 mph NNE21.1 kmh NNE 22.8 mph36.7 kmh 30.01 in1016.3 mb 0.00 in0.0 mm 0.00 in0.0 mm 0.00 in0.0 mm
08:15 AM 52.9°F11.6°C 44.6°F7.0°C 72% 12.0 mph NNE19.3 kmh NNE 23.3 mph37.5 kmh 30.01 in1016.3 mb 0.00 in0.0 mm 0.00 in0.0 mm 0.00 in0.0 mm
08:20 AM 52.9°F11.6°C 44.6°F7.0°C 72% 13.6 mph NNE21.9 kmh NNE 23.3 mph37.5 kmh 30.01 in1016.3 mb 0.00 in0.0 mm 0.00 in0.0 mm 0.00 in0.0 mm
08:25 AM 52.9°F11.6°C 44.6°F7.0°C 71% 12.0 mph NNE19.3 kmh NNE 23.9 mph38.5 kmh 29.98 in1015.2 mb 0.00 in0.0 mm 0.00 in0.0 mm 0.00 in0.0 mm
08:30 AM 52.9°F11.6°C 44.6°F7.0°C 71% 10.9 mph NNE17.5 kmh NNE 23.9 mph38.5 kmh 29.98 in1015.2 mb 0.00 in0.0 mm 0.00 in0.0 mm 0.00 in0.0 mm
08:35 AM 52.7°F11.5°C 44.6°F7.0°C 71% 12.8 mph NNE20.6 kmh NNE 19.0 mph30.6 kmh 29.98 in1015.2 mb 0.00 in0.0 mm 0.00 in0.0 mm 0.00 in0.0 mm
08:40 AM 52.7°F11.5°C 44.6°F7.0°C 71% 13.3 mph NNE21.4 kmh NNE 19.0 mph30.6 kmh 30.01 in1016.3 mb 0.00 in0.0 mm 0.00 in0.0 mm 0.00 in0.0 mm
08:45 AM 52.9°F11.6°C 44.6°F7.0°C 71% 13.7 mph N22.0 kmh N 19.0 mph30.6 kmh 30.01 in1016.3 mb 0.00 in0.0 mm 0.00 in0.0 mm 0.00 in0.0 mm
08:50 AM 53.1°F11.7°C 44.6°F7.0°C 71% 11.2 mph N18.0 kmh N 17.4 mph28.0 kmh 30.01 in1016.3 mb 0.00 in0.0 mm 0.00 in0.0 mm 0.00 in0.0 mm
08:55 AM 53.2°F11.8°C 44.6°F7.0°C 71% 11.2 mph NNE18.0 kmh NNE 15.4 mph24.8 kmh 30.01 in1016.3 mb 0.00 in0.0 mm 0.00 in0.0 mm 0.00 in0.0 mm
09:00 AM 53.4°F11.9°C 44.6°F7.0°C 71% 12.6 mph NNE20.3 kmh NNE 15.7 mph25.3 kmh 30.01 in1016.3 mb 0.00 in0.0 mm 0.00 in0.0 mm 0.00 in0.0 mm
09:05 AM 53.6°F12.0°C 44.6°F7.0°C 71% 13.3 mph NNE21.4 kmh NNE 19.9 mph32.0 kmh 30.01 in1016.3 mb 0.00 in0.0 mm 0.00 in0.0 mm 0.00 in0.0 mm
09:10 AM 54.0°F12.2°C 44.6°F7.0°C 71% 12.7 mph NNE20.4 kmh NNE 19.9 mph32.0 kmh 29.98 in1015.2 mb 0.00 in0.0 mm 0.00 in0.0 mm 0.00 in0.0 mm
09:15 AM 54.1°F12.3°C 46.4°F8.0°C 71% 12.2 mph NE19.6 kmh NE 20.1 mph32.3 kmh 29.98 in1015.2 mb 0.00 in0.0 mm 0.00 in0.0 mm 0.00 in0.0 mm
09:20 AM 54.1°F12.3°C 46.4°F8.0°C 71% 13.0 mph N20.9 kmh N 20.1 mph32.3 kmh 29.98 in1015.2 mb 0.00 in0.0 mm 0.00 in0.0 mm 0.00 in0.0 mm
09:25 AM 54.3°F12.4°C 44.6°F7.0°C 70% 14.2 mph N22.9 kmh N 19.2 mph30.9 kmh 29.98 in1015.2 mb 0.00 in0.0 mm 0.00 in0.0 mm 0.00 in0.0 mm
09:30 AM 54.1°F12.3°C 44.6°F7.0°C 70% 15.8 mph N25.4 kmh N 19.9 mph32.0 kmh 29.98 in1015.2 mb 0.00 in0.0 mm 0.00 in0.0 mm 0.00 in0.0 mm
09:35 AM 54.3°F12.4°C 44.6°F7.0°C 70% 12.8 mph N20.6 kmh N 19.9 mph32.0 kmh 29.98 in1015.2 mb 0.00 in0.0 mm 0.00 in0.0 mm 0.00 in0.0 mm
09:40 AM 54.3°F12.4°C 44.6°F7.0°C 70% 10.7 mph N17.2 kmh N 15.2 mph24.5 kmh 29.98 in1015.2 mb 0.00 in0.0 mm 0.00 in0.0 mm 0.00 in0.0 mm
09:45 AM 54.5°F12.5°C 46.4°F8.0°C 70% 11.4 mph N18.3 kmh N 16.8 mph27.0 kmh 29.98 in1015.2 mb 0.00 in0.0 mm 0.00 in0.0 mm 0.00 in0.0 mm
09:50 AM 54.7°F12.6°C 46.4°F8.0°C 70% 12.5 mph N20.1 kmh N 19.5 mph31.4 kmh 29.98 in1015.2 mb 0.00 in0.0 mm 0.00 in0.0 mm 0.00 in0.0 mm
09:55 AM 54.3°F12.4°C 44.6°F7.0°C 70% 13.7 mph N22.0 kmh N 19.9 mph32.0 kmh 30.01 in1016.3 mb 0.00 in0.0 mm 0.00 in0.0 mm 0.00 in0.0 mm
10:00 AM 54.5°F12.5°C 46.4°F8.0°C 70% 13.0 mph N20.9 kmh N 19.9 mph32.0 kmh 30.01 in1016.3 mb 0.00 in0.0 mm 0.00 in0.0 mm 0.00 in0.0 mm
10:05 AM 54.5°F12.5°C 46.4°F8.0°C 70% 12.8 mph NNE20.6 kmh NNE 18.1 mph29.1 kmh 30.01 in1016.3 mb 0.00 in0.0 mm 0.00 in0.0 mm 0.00 in0.0 mm
10:10 AM 54.7°F12.6°C 44.6°F7.0°C 69% 12.4 mph NE20.0 kmh NE 16.8 mph27.0 kmh 29.98 in1015.2 mb 0.00 in0.0 mm 0.00 in0.0 mm 0.00 in0.0 mm
10:15 AM 54.9°F12.7°C 44.6°F7.0°C 69% 12.9 mph NNE20.8 kmh NNE 16.3 mph26.2 kmh 29.98 in1015.2 mb 0.00 in0.0 mm 0.00 in0.0 mm 0.00 in0.0 mm
10:20 AM 55.4°F13.0°C 46.4°F8.0°C 69% 14.2 mph NNE22.9 kmh NNE 22.4 mph36.0 kmh 29.98 in1015.2 mb 0.00 in0.0 mm 0.00 in0.0 mm 0.00 in0.0 mm
10:25 AM 56.7°F13.7°C 46.4°F8.0°C 69% 14.2 mph NNE22.9 kmh NNE 22.4 mph36.0 kmh 30.01 in1016.3 mb 0.00 in0.0 mm 0.00 in0.0 mm 0.00 in0.0 mm
10:30 AM 56.1°F13.4°C 46.4°F8.0°C 68% 13.0 mph NNE20.9 kmh NNE 19.7 mph31.7 kmh 30.01 in1016.3 mb 0.00 in0.0 mm 0.00 in0.0 mm 0.00 in0.0 mm
10:35 AM 55.9°F13.3°C 46.4°F8.0°C 69% 11.8 mph NNE19.0 kmh NNE 19.7 mph31.7 kmh 30.01 in1016.3 mb 0.00 in0.0 mm 0.00 in0.0 mm 0.00 in0.0 mm
10:40 AM 56.3°F13.5°C 46.4°F8.0°C 68% 12.4 mph NNE20.0 kmh NNE 20.8 mph33.5 kmh 30.01 in1016.3 mb 0.00 in0.0 mm 0.00 in0.0 mm 0.00 in0.0 mm
10:45 AM 56.1°F13.4°C 46.4°F8.0°C 68% 13.0 mph NNE20.9 kmh NNE 20.8 mph33.5 kmh 30.01 in1016.3 mb 0.00 in0.0 mm 0.00 in0.0 mm 0.00 in0.0 mm
10:50 AM 55.6°F13.1°C 46.4°F8.0°C 68% 13.0 mph N20.9 kmh N 20.4 mph32.8 kmh 30.01 in1016.3 mb 0.00 in0.0 mm 0.00 in0.0 mm 0.00 in0.0 mm
10:55 AM 55.6°F13.1°C 46.4°F8.0°C 68% 11.4 mph NNE18.3 kmh NNE 20.4 mph32.8 kmh 30.01 in1016.3 mb 0.00 in0.0 mm 0.00 in0.0 mm 0.00 in0.0 mm
11:00 AM 55.2°F12.9°C 46.4°F8.0°C 68% 10.2 mph NNE16.4 kmh NNE 13.2 mph21.2 kmh 30.01 in1016.3 mb 0.00 in0.0 mm 0.00 in0.0 mm 0.00 in0.0 mm
11:05 AM 54.7°F12.6°C 44.6°F7.0°C 69% 11.9 mph NNE19.2 kmh NNE 15.2 mph24.5 kmh 30.01 in1016.3 mb 0.00 in0.0 mm 0.00 in0.0 mm 0.00 in0.0 mm
11:10 AM 54.5°F12.5°C 44.6°F7.0°C 69% 12.9 mph NNE20.8 kmh NNE 20.8 mph33.5 kmh 30.01 in1016.3 mb 0.00 in0.0 mm 0.00 in0.0 mm 0.00 in0.0 mm
11:15 AM 54.3°F12.4°C 44.6°F7.0°C 69% 12.6 mph N20.3 kmh N 20.8 mph33.5 kmh 30.01 in1016.3 mb 0.00 in0.0 mm 0.00 in0.0 mm 0.00 in0.0 mm
11:20 AM 54.3°F12.4°C 44.6°F7.0°C 69% 11.6 mph NNE18.7 kmh NNE 14.1 mph22.7 kmh 30.01 in1016.3 mb 0.00 in0.0 mm 0.00 in0.0 mm 0.00 in0.0 mm
11:25 AM 54.5°F12.5°C 44.6°F7.0°C 69% 11.9 mph NNE19.2 kmh NNE 14.1 mph22.7 kmh 30.01 in1016.3 mb 0.00 in0.0 mm 0.00 in0.0 mm 0.00 in0.0 mm
11:30 AM 54.5°F12.5°C 44.6°F7.0°C 68% 14.6 mph NNE23.5 kmh NNE 22.1 mph35.6 kmh 30.01 in1016.3 mb 0.00 in0.0 mm 0.00 in0.0 mm 0.00 in0.0 mm
11:35 AM 54.3°F12.4°C 44.6°F7.0°C 69% 17.6 mph NE28.3 kmh NE 22.1 mph35.6 kmh 30.01 in1016.3 mb 0.00 in0.0 mm 0.00 in0.0 mm 0.00 in0.0 mm
11:40 AM 54.3°F12.4°C 44.6°F7.0°C 69% 15.8 mph NE25.4 kmh NE 24.2 mph38.9 kmh 30.01 in1016.3 mb 0.00 in0.0 mm 0.00 in0.0 mm 0.00 in0.0 mm
11:45 AM 54.3°F12.4°C 44.6°F7.0°C 69% 13.4 mph NNE21.6 kmh NNE 24.2 mph38.9 kmh 30.01 in1016.3 mb 0.00 in0.0 mm 0.00 in0.0 mm 0.00 in0.0 mm
11:50 AM 54.3°F12.4°C 44.6°F7.0°C 69% 12.9 mph NNE20.8 kmh NNE 19.7 mph31.7 kmh 30.01 in1016.3 mb 0.00 in0.0 mm 0.00 in0.0 mm 0.00 in0.0 mm
11:55 AM 54.3°F12.4°C 44.6°F7.0°C 69% 14.1 mph N22.7 kmh N 20.1 mph32.3 kmh 30.01 in1016.3 mb 0.00 in0.0 mm 0.00 in0.0 mm 0.00 in0.0 mm
12:00 PM 54.3°F12.4°C 44.6°F7.0°C 69% 14.3 mph NNE23.0 kmh NNE 20.1 mph32.3 kmh 30.01 in1016.3 mb 0.00 in0.0 mm 0.00 in0.0 mm 0.00 in0.0 mm
12:05 PM 54.7°F12.6°C 44.6°F7.0°C 69% 12.9 mph NE20.8 kmh NE 19.2 mph30.9 kmh 30.01 in1016.3 mb 0.00 in0.0 mm 0.00 in0.0 mm 0.00 in0.0 mm
12:10 PM 54.7°F12.6°C 44.6°F7.0°C 69% 12.6 mph NNE20.3 kmh NNE 17.4 mph28.0 kmh 30.01 in1016.3 mb 0.00 in0.0 mm 0.00 in0.0 mm 0.00 in0.0 mm
12:15 PM 54.5°F12.5°C 44.6°F7.0°C 69% 13.4 mph N21.6 kmh N 17.4 mph28.0 kmh 30.01 in1016.3 mb 0.00 in0.0 mm 0.00 in0.0 mm 0.00 in0.0 mm
12:20 PM 54.5°F12.5°C 44.6°F7.0°C 69% 11.9 mph NNE19.2 kmh NNE 17.4 mph28.0 kmh 30.01 in1016.3 mb 0.00 in0.0 mm 0.00 in0.0 mm 0.00 in0.0 mm
12:25 PM 54.3°F12.4°C 44.6°F7.0°C 70% 10.8 mph NNE17.4 kmh NNE 17.4 mph28.0 kmh 29.98 in1015.2 mb 0.00 in0.0 mm 0.00 in0.0 mm 0.00 in0.0 mm
12:30 PM 54.3°F12.4°C 44.6°F7.0°C 70% 10.7 mph NNE17.2 kmh NNE 15.4 mph24.8 kmh 29.98 in1015.2 mb 0.00 in0.0 mm 0.00 in0.0 mm 0.00 in0.0 mm
12:35 PM 54.3°F12.4°C 44.6°F7.0°C 70% 11.5 mph NNE18.5 kmh NNE 17.7 mph28.5 kmh 29.98 in1015.2 mb 0.00 in0.0 mm 0.00 in0.0 mm 0.00 in0.0 mm
12:40 PM 54.3°F12.4°C 44.6°F7.0°C 70% 12.2 mph NNE19.6 kmh NNE 17.7 mph28.5 kmh 30.01 in1016.3 mb 0.00 in0.0 mm 0.00 in0.0 mm 0.00 in0.0 mm
12:45 PM 54.5°F12.5°C 46.4°F8.0°C 70% 10.7 mph NNE17.2 kmh NNE 19.9 mph32.0 kmh 30.01 in1016.3 mb 0.00 in0.0 mm 0.00 in0.0 mm 0.00 in0.0 mm
12:50 PM 54.5°F12.5°C 46.4°F8.0°C 70% 10.6 mph NNE17.1 kmh NNE 19.9 mph32.0 kmh 30.01 in1016.3 mb 0.00 in0.0 mm 0.00 in0.0 mm 0.00 in0.0 mm
12:55 PM 54.5°F12.5°C 46.4°F8.0°C 70% 11.7 mph N18.8 kmh N 18.8 mph30.3 kmh 29.98 in1015.2 mb 0.00 in0.0 mm 0.00 in0.0 mm 0.00 in0.0 mm
01:00 PM 54.3°F12.4°C 44.6°F7.0°C 70% 12.3 mph N19.8 kmh N 18.8 mph30.3 kmh 29.98 in1015.2 mb 0.00 in0.0 mm 0.00 in0.0 mm 0.00 in0.0 mm
01:05 PM 54.3°F12.4°C 44.6°F7.0°C 70% 15.0 mph NNE24.1 kmh NNE 21.9 mph35.2 kmh 29.98 in1015.2 mb 0.00 in0.0 mm 0.00 in0.0 mm 0.00 in0.0 mm
01:10 PM 54.3°F12.4°C 44.6°F7.0°C 70% 15.2 mph NNE24.5 kmh NNE 21.9 mph35.2 kmh 29.98 in1015.2 mb 0.00 in0.0 mm 0.00 in0.0 mm 0.00 in0.0 mm
01:15 PM 54.3°F12.4°C 44.6°F7.0°C 70% 12.9 mph N20.8 kmh N 19.0 mph30.6 kmh 29.98 in1015.2 mb 0.00 in0.0 mm 0.00 in0.0 mm 0.00 in0.0 mm
01:20 PM 54.3°F12.4°C 44.6°F7.0°C 70% 12.3 mph NNE19.8 kmh NNE 19.0 mph30.6 kmh 29.98 in1015.2 mb 0.00 in0.0 mm 0.00 in0.0 mm 0.00 in0.0 mm
01:25 PM 54.1°F12.3°C 44.6°F7.0°C 70% 14.7 mph N23.7 kmh N 22.1 mph35.6 kmh 30.01 in1016.3 mb 0.00 in0.0 mm 0.00 in0.0 mm 0.00 in0.0 mm
01:30 PM 54.0°F12.2°C 44.6°F7.0°C 70% 14.6 mph N23.5 kmh N 22.1 mph35.6 kmh 30.01 in1016.3 mb 0.00 in0.0 mm 0.00 in0.0 mm 0.00 in0.0 mm
01:35 PM 53.8°F12.1°C 44.6°F7.0°C 70% 13.2 mph N21.2 kmh N 20.6 mph33.2 kmh 30.01 in1016.3 mb 0.00 in0.0 mm 0.00 in0.0 mm 0.00 in0.0 mm
01:40 PM 53.8°F12.1°C 44.6°F7.0°C 70% 11.5 mph N18.5 kmh N 20.6 mph33.2 kmh 30.01 in1016.3 mb 0.00 in0.0 mm 0.00 in0.0 mm 0.00 in0.0 mm
01:45 PM 53.8°F12.1°C 44.6°F7.0°C 70% 10.5 mph N16.9 kmh N 15.4 mph24.8 kmh 30.01 in1016.3 mb 0.00 in0.0 mm 0.00 in0.0 mm 0.00 in0.0 mm
01:50 PM 53.6°F12.0°C 44.6°F7.0°C 70% 10.7 mph N17.2 kmh N 15.4 mph24.8 kmh 30.01 in1016.3 mb 0.00 in0.0 mm 0.00 in0.0 mm 0.00 in0.0 mm
01:55 PM 53.6°F12.0°C 44.6°F7.0°C 71% 9.9 mph N15.9 kmh N 15.4 mph24.8 kmh 30.01 in1016.3 mb 0.00 in0.0 mm 0.00 in0.0 mm 0.00 in0.0 mm
02:00 PM 53.6°F12.0°C 44.6°F7.0°C 71% 10.4 mph NNE16.7 kmh NNE 16.1 mph25.9 kmh 30.01 in1016.3 mb 0.00 in0.0 mm 0.00 in0.0 mm 0.00 in0.0 mm
02:05 PM 53.4°F11.9°C 44.6°F7.0°C 71% 11.7 mph NNE18.8 kmh NNE 17.0 mph27.4 kmh 30.01 in1016.3 mb 0.00 in0.0 mm 0.00 in0.0 mm 0.00 in0.0 mm
02:10 PM 53.4°F11.9°C 44.6°F7.0°C 71% 12.1 mph NNE19.5 kmh NNE 17.0 mph27.4 kmh 30.01 in1016.3 mb 0.00 in0.0 mm 0.00 in0.0 mm 0.00 in0.0 mm
02:15 PM 53.4°F11.9°C 44.6°F7.0°C 71% 12.0 mph NNE19.3 kmh NNE 20.6 mph33.2 kmh 30.01 in1016.3 mb 0.00 in0.0 mm 0.00 in0.0 mm 0.00 in0.0 mm
02:20 PM 53.4°F11.9°C 44.6°F7.0°C 71% 12.7 mph NNE20.4 kmh NNE 20.6 mph33.2 kmh 30.01 in1016.3 mb 0.00 in0.0 mm 0.00 in0.0 mm 0.00 in0.0 mm
02:25 PM 53.2°F11.8°C 44.6°F7.0°C 71% 12.8 mph NNE20.6 kmh NNE 20.6 mph33.2 kmh 30.01 in1016.3 mb 0.00 in0.0 mm 0.00 in0.0 mm 0.00 in0.0 mm
02:30 PM 53.2°F11.8°C 42.8°F6.0°C 70% 14.3 mph NNE23.0 kmh NNE 19.5 mph31.4 kmh 30.01 in1016.3 mb 0.00 in0.0 mm 0.00 in0.0 mm 0.00 in0.0 mm
02:35 PM 53.2°F11.8°C 42.8°F6.0°C 70% 14.7 mph NNE23.7 kmh NNE 19.2 mph30.9 kmh 30.01 in1016.3 mb 0.00 in0.0 mm 0.00 in0.0 mm 0.00 in0.0 mm
02:40 PM 53.2°F11.8°C 42.8°F6.0°C 70% 12.6 mph NNE20.3 kmh NNE 17.7 mph28.5 kmh 30.01 in1016.3 mb 0.00 in0.0 mm 0.00 in0.0 mm 0.00 in0.0 mm
02:45 PM 53.2°F11.8°C 42.8°F6.0°C 70% 11.0 mph NNE17.7 kmh NNE 17.7 mph28.5 kmh 30.01 in1016.3 mb 0.00 in0.0 mm 0.00 in0.0 mm 0.00 in0.0 mm
02:50 PM 53.2°F11.8°C 44.6°F7.0°C 71% 10.8 mph NNE17.4 kmh NNE 17.4 mph28.0 kmh 30.01 in1016.3 mb 0.00 in0.0 mm 0.00 in0.0 mm 0.00 in0.0 mm
02:55 PM 53.2°F11.8°C 44.6°F7.0°C 71% 10.5 mph NNE16.9 kmh NNE 17.0 mph27.4 kmh 30.01 in1016.3 mb 0.00 in0.0 mm 0.00 in0.0 mm 0.00 in0.0 mm
03:00 PM 53.2°F11.8°C 44.6°F7.0°C 71% 10.6 mph NNE17.1 kmh NNE 17.0 mph27.4 kmh 30.01 in1016.3 mb 0.00 in0.0 mm 0.00 in0.0 mm 0.00 in0.0 mm
03:05 PM 53.2°F11.8°C 44.6°F7.0°C 71% 10.1 mph NNE16.3 kmh NNE 15.2 mph24.5 kmh 30.01 in1016.3 mb 0.00 in0.0 mm 0.00 in0.0 mm 0.00 in0.0 mm
03:10 PM 53.2°F11.8°C 44.6°F7.0°C 71% 9.9 mph N15.9 kmh N 17.0 mph27.4 kmh 30.01 in1016.3 mb 0.00 in0.0 mm 0.00 in0.0 mm 0.00 in0.0 mm
03:15 PM 53.2°F11.8°C 44.6°F7.0°C 71% 10.9 mph N17.5 kmh N 17.9 mph28.8 kmh 30.01 in1016.3 mb 0.00 in0.0 mm 0.00 in0.0 mm 0.00 in0.0 mm
03:20 PM 53.2°F11.8°C 44.6°F7.0°C 71% 11.4 mph NNE18.3 kmh NNE 22.1 mph35.6 kmh 30.01 in1016.3 mb 0.00 in0.0 mm 0.00 in0.0 mm 0.00 in0.0 mm
03:25 PM 53.2°F11.8°C 44.6°F7.0°C 71% 12.5 mph NNE20.1 kmh NNE 22.1 mph35.6 kmh 30.01 in1016.3 mb 0.00 in0.0 mm 0.00 in0.0 mm 0.00 in0.0 mm
03:30 PM 53.1°F11.7°C 44.6°F7.0°C 71% 10.1 mph N16.3 kmh N 19.5 mph31.4 kmh 30.01 in1016.3 mb 0.00 in0.0 mm 0.00 in0.0 mm 0.00 in0.0 mm
03:35 PM 53.1°F11.7°C 44.6°F7.0°C 72% 6.6 mph N10.6 kmh N 12.3 mph19.8 kmh 30.01 in1016.3 mb 0.00 in0.0 mm 0.00 in0.0 mm 0.00 in0.0 mm
03:40 PM 53.2°F11.8°C 44.6°F7.0°C 72% 7.2 mph NNE11.6 kmh NNE 13.6 mph21.9 kmh 30.01 in1016.3 mb 0.00 in0.0 mm 0.00 in0.0 mm 0.00 in0.0 mm
03:45 PM 53.2°F11.8°C 44.6°F7.0°C 72% 8.1 mph N13.0 kmh N 13.6 mph21.9 kmh 30.01 in1016.3 mb 0.00 in0.0 mm 0.00 in0.0 mm 0.00 in0.0 mm
03:50 PM 53.2°F11.8°C 44.6°F7.0°C 72% 9.0 mph NNE14.5 kmh NNE 12.3 mph19.8 kmh 30.01 in1016.3 mb 0.00 in0.0 mm 0.00 in0.0 mm 0.00 in0.0 mm
03:55 PM 53.4°F11.9°C 44.6°F7.0°C 72% 9.3 mph NNE15.0 kmh NNE 13.0 mph20.9 kmh 30.01 in1016.3 mb 0.00 in0.0 mm 0.00 in0.0 mm 0.00 in0.0 mm
04:00 PM 53.4°F11.9°C 44.6°F7.0°C 72% 8.8 mph NNE14.2 kmh NNE 13.4 mph21.6 kmh 30.01 in1016.3 mb 0.00 in0.0 mm 0.00 in0.0 mm 0.00 in0.0 mm
04:05 PM 53.2°F11.8°C 44.6°F7.0°C 71% 10.2 mph N16.4 kmh N 20.6 mph33.2 kmh 30.01 in1016.3 mb 0.00 in0.0 mm 0.00 in0.0 mm 0.00 in0.0 mm
04:10 PM 53.2°F11.8°C 44.6°F7.0°C 71% 10.1 mph NNE16.3 kmh NNE 20.6 mph33.2 kmh 30.01 in1016.3 mb 0.00 in0.0 mm 0.00 in0.0 mm 0.00 in0.0 mm
04:15 PM 53.2°F11.8°C 44.6°F7.0°C 71% 8.2 mph NNE13.2 kmh NNE 14.8 mph23.8 kmh 30.01 in1016.3 mb 0.00 in0.0 mm 0.00 in0.0 mm 0.00 in0.0 mm
04:20 PM 53.2°F11.8°C 44.6°F7.0°C 71% 7.2 mph NNE11.6 kmh NNE 14.8 mph23.8 kmh 30.01 in1016.3 mb 0.00 in0.0 mm 0.00 in0.0 mm 0.00 in0.0 mm
04:25 PM 53.1°F11.7°C 44.6°F7.0°C 72% 6.6 mph NNE10.6 kmh NNE 14.8 mph23.8 kmh 30.01 in1016.3 mb 0.00 in0.0 mm 0.00 in0.0 mm 0.00 in0.0 mm
04:30 PM 52.9°F11.6°C 44.6°F7.0°C 72% 7.2 mph NNE11.6 kmh NNE 12.5 mph20.1 kmh 30.01 in1016.3 mb 0.00 in0.0 mm 0.00 in0.0 mm 0.00 in0.0 mm
04:35 PM 52.9°F11.6°C 44.6°F7.0°C 73% 7.0 mph NNE11.3 kmh NNE 12.5 mph20.1 kmh 30.01 in1016.3 mb 0.00 in0.0 mm 0.00 in0.0 mm 0.00 in0.0 mm
04:40 PM 52.7°F11.5°C 44.6°F7.0°C 73% 7.0 mph NNE11.3 kmh NNE 13.0 mph20.9 kmh 29.98 in1015.2 mb 0.00 in0.0 mm 0.00 in0.0 mm 0.00 in0.0 mm
04:45 PM 52.5°F11.4°C 44.6°F7.0°C 73% 8.2 mph NE13.2 kmh NE 13.0 mph20.9 kmh 29.98 in1015.2 mb 0.00 in0.0 mm 0.00 in0.0 mm 0.00 in0.0 mm
04:50 PM 52.3°F11.3°C 44.6°F7.0°C 73% 6.7 mph NNE10.8 kmh NNE 11.9 mph19.2 kmh 29.98 in1015.2 mb 0.00 in0.0 mm 0.00 in0.0 mm 0.00 in0.0 mm
04:55 PM 52.2°F11.2°C 44.6°F7.0°C 73% 7.2 mph N11.6 kmh N 13.0 mph20.9 kmh 29.98 in1015.2 mb 0.00 in0.0 mm 0.00 in0.0 mm 0.00 in0.0 mm
05:00 PM 52.2°F11.2°C 44.6°F7.0°C 74% 7.7 mph N12.4 kmh N 13.0 mph20.9 kmh 29.98 in1015.2 mb 0.00 in0.0 mm 0.00 in0.0 mm 0.00 in0.0 mm
05:05 PM 52.2°F11.2°C 44.6°F7.0°C 74% 6.8 mph N10.9 kmh N 10.3 mph16.6 kmh 29.98 in1015.2 mb 0.00 in0.0 mm 0.00 in0.0 mm 0.00 in0.0 mm
05:10 PM 51.6°F10.9°C 44.6°F7.0°C 74% 7.3 mph N11.7 kmh N 12.3 mph19.8 kmh 29.98 in1015.2 mb 0.00 in0.0 mm 0.00 in0.0 mm 0.00 in0.0 mm
05:15 PM 51.4°F10.8°C 44.6°F7.0°C 75% 7.0 mph N11.3 kmh N 12.3 mph19.8 kmh 29.98 in1015.2 mb 0.00 in0.0 mm 0.00 in0.0 mm 0.00 in0.0 mm
05:20 PM 51.3°F10.7°C 44.6°F7.0°C 75% 7.2 mph N11.6 kmh N 13.2 mph21.2 kmh 29.98 in1015.2 mb 0.00 in0.0 mm 0.00 in0.0 mm 0.00 in0.0 mm
05:25 PM 51.3°F10.7°C 44.6°F7.0°C 76% 7.7 mph N12.4 kmh N 13.4 mph21.6 kmh 29.98 in1015.2 mb 0.00 in0.0 mm 0.00 in0.0 mm 0.00 in0.0 mm
05:30 PM 51.3°F10.7°C 44.6°F7.0°C 76% 7.6 mph N12.2 kmh N 13.4 mph21.6 kmh 29.98 in1015.2 mb 0.00 in0.0 mm 0.00 in0.0 mm 0.00 in0.0 mm
05:35 PM 51.3°F10.7°C 44.6°F7.0°C 76% 9.6 mph N15.4 kmh N 17.0 mph27.4 kmh 29.98 in1015.2 mb 0.00 in0.0 mm 0.00 in0.0 mm 0.00 in0.0 mm
05:40 PM 51.1°F10.6°C 44.6°F7.0°C 76% 9.3 mph N15.0 kmh N 17.0 mph27.4 kmh 29.98 in1015.2 mb 0.00 in0.0 mm 0.00 in0.0 mm 0.00 in0.0 mm
05:45 PM 51.1°F10.6°C 44.6°F7.0°C 76% 7.5 mph N12.1 kmh N 14.8 mph23.8 kmh 29.98 in1015.2 mb 0.00 in0.0 mm 0.00 in0.0 mm 0.00 in0.0 mm
05:50 PM 51.1°F10.6°C 44.6°F7.0°C 76% 6.5 mph N10.5 kmh N 11.0 mph17.7 kmh 29.98 in1015.2 mb 0.00 in0.0 mm 0.00 in0.0 mm 0.00 in0.0 mm
05:55 PM 50.9°F10.5°C 44.6°F7.0°C 76% 7.8 mph N12.6 kmh N 12.8 mph20.6 kmh 29.98 in1015.2 mb 0.00 in0.0 mm 0.00 in0.0 mm 0.00 in0.0 mm
06:00 PM 50.7°F10.4°C 44.6°F7.0°C 77% 9.1 mph N14.6 kmh N 12.8 mph20.6 kmh 29.98 in1015.2 mb 0.00 in0.0 mm 0.00 in0.0 mm 0.00 in0.0 mm
06:05 PM 50.5°F10.3°C 44.6°F7.0°C 77% 8.8 mph N14.2 kmh N 12.3 mph19.8 kmh 29.98 in1015.2 mb 0.00 in0.0 mm 0.00 in0.0 mm 0.00 in0.0 mm
06:10 PM 50.5°F10.3°C 44.6°F7.0°C 77% 7.0 mph N11.3 kmh N 12.3 mph19.8 kmh 29.98 in1015.2 mb 0.00 in0.0 mm 0.00 in0.0 mm 0.00 in0.0 mm
06:15 PM 50.5°F10.3°C 44.6°F7.0°C 78% 6.2 mph N10.0 kmh N 8.7 mph14.0 kmh 29.98 in1015.2 mb 0.00 in0.0 mm 0.00 in0.0 mm 0.00 in0.0 mm
06:20 PM 50.4°F10.2°C 44.6°F7.0°C 78% 7.9 mph NNW12.7 kmh NNW 12.1 mph19.5 kmh 29.98 in1015.2 mb 0.00 in0.0 mm 0.00 in0.0 mm 0.00 in0.0 mm
06:25 PM 50.4°F10.2°C 44.6°F7.0°C 78% 8.1 mph N13.0 kmh N 12.1 mph19.5 kmh 29.98 in1015.2 mb 0.00 in0.0 mm 0.00 in0.0 mm 0.00 in0.0 mm
06:30 PM 50.2°F10.1°C 42.8°F6.0°C 78% 7.3 mph N11.7 kmh N 11.0 mph17.7 kmh 29.98 in1015.2 mb 0.11 in2.8 mm 1.32 in33.5 mm 0.11 in2.8 mm
06:35 PM 50.0°F10.0°C 42.8°F6.0°C 78% 7.3 mph N11.7 kmh N 10.5 mph16.9 kmh 29.98 in1015.2 mb 0.11 in2.8 mm 0.00 in0.0 mm 0.11 in2.8 mm
06:40 PM 50.0°F10.0°C 44.6°F7.0°C 79% 7.3 mph N11.7 kmh N 10.3 mph16.6 kmh 29.98 in1015.2 mb 0.11 in2.8 mm 0.00 in0.0 mm 0.11 in2.8 mm
06:45 PM 49.8°F9.9°C 44.6°F7.0°C 79% 8.4 mph NNE13.5 kmh NNE 13.4 mph21.6 kmh 29.98 in1015.2 mb 0.11 in2.8 mm 0.00 in0.0 mm 0.11 in2.8 mm
06:50 PM 49.8°F9.9°C 44.6°F7.0°C 79% 7.2 mph NNE11.6 kmh NNE 13.4 mph21.6 kmh 29.98 in1015.2 mb 0.11 in2.8 mm 0.00 in0.0 mm 0.11 in2.8 mm
06:55 PM 49.8°F9.9°C 44.6°F7.0°C 79% 6.9 mph N11.1 kmh N 12.3 mph19.8 kmh 29.98 in1015.2 mb 0.11 in2.8 mm 0.00 in0.0 mm 0.11 in2.8 mm
07:00 PM 49.6°F9.8°C 42.8°F6.0°C 79% 8.2 mph N13.2 kmh N 12.3 mph19.8 kmh 29.98 in1015.2 mb 0.11 in2.8 mm 0.00 in0.0 mm 0.11 in2.8 mm
07:05 PM 49.5°F9.7°C 42.8°F6.0°C 79% 7.7 mph N12.4 kmh N 10.7 mph17.2 kmh 29.98 in1015.2 mb 0.11 in2.8 mm 0.00 in0.0 mm 0.11 in2.8 mm
07:10 PM 49.5°F9.7°C 42.8°F6.0°C 79% 7.6 mph N12.2 kmh N 10.7 mph17.2 kmh 29.98 in1015.2 mb 0.11 in2.8 mm 0.00 in0.0 mm 0.11 in2.8 mm
07:15 PM 49.3°F9.6°C 42.8°F6.0°C 79% 9.1 mph N14.6 kmh N 14.5 mph23.3 kmh 29.98 in1015.2 mb 0.11 in2.8 mm 0.00 in0.0 mm 0.11 in2.8 mm
07:20 PM 49.3°F9.6°C 42.8°F6.0°C 79% 8.8 mph N14.2 kmh N 14.5 mph23.3 kmh 29.98 in1015.2 mb 0.11 in2.8 mm 0.00 in0.0 mm 0.11 in2.8 mm
07:25 PM 49.3°F9.6°C 42.8°F6.0°C 79% 7.7 mph N12.4 kmh N 11.2 mph18.0 kmh 29.98 in1015.2 mb 0.11 in2.8 mm 0.00 in0.0 mm 0.11 in2.8 mm
07:30 PM 49.3°F9.6°C 44.6°F7.0°C 80% 7.6 mph N12.2 kmh N 11.2 mph18.0 kmh 29.98 in1015.2 mb 0.00 in0.0 mm 0.00 in0.0 mm 0.11 in2.8 mm
07:35 PM 49.1°F9.5°C 44.6°F7.0°C 80% 7.8 mph N12.6 kmh N 13.0 mph20.9 kmh 29.98 in1015.2 mb 0.00 in0.0 mm 0.00 in0.0 mm 0.11 in2.8 mm
07:40 PM 49.1°F9.5°C 44.6°F7.0°C 80% 7.9 mph N12.7 kmh N 13.0 mph20.9 kmh 29.98 in1015.2 mb 0.00 in0.0 mm 0.00 in0.0 mm 0.11 in2.8 mm
07:45 PM 49.1°F9.5°C 44.6°F7.0°C 80% 7.8 mph N12.6 kmh N 13.0 mph20.9 kmh 29.98 in1015.2 mb 0.07 in1.8 mm 0.84 in21.3 mm 0.18 in4.6 mm
07:50 PM 49.1°F9.5°C 44.6°F7.0°C 80% 7.8 mph N12.6 kmh N 11.0 mph17.7 kmh 29.98 in1015.2 mb 0.07 in1.8 mm 0.00 in0.0 mm 0.18 in4.6 mm
07:55 PM 49.1°F9.5°C 44.6°F7.0°C 80% 7.1 mph N11.4 kmh N 12.5 mph20.1 kmh 29.98 in1015.2 mb 0.07 in1.8 mm 0.00 in0.0 mm 0.18 in4.6 mm
08:00 PM 49.1°F9.5°C 44.6°F7.0°C 80% 6.6 mph N10.6 kmh N 12.5 mph20.1 kmh 29.98 in1015.2 mb 0.07 in1.8 mm 0.00 in0.0 mm 0.18 in4.6 mm
08:05 PM 49.1°F9.5°C 44.6°F7.0°C 81% 6.9 mph N11.1 kmh N 12.5 mph20.1 kmh 29.98 in1015.2 mb 0.07 in1.8 mm 0.00 in0.0 mm 0.18 in4.6 mm
08:10 PM 49.1°F9.5°C 44.6°F7.0°C 81% 6.4 mph N10.3 kmh N 8.7 mph14.0 kmh 29.98 in1015.2 mb 0.07 in1.8 mm 0.00 in0.0 mm 0.18 in4.6 mm
08:15 PM 49.1°F9.5°C 44.6°F7.0°C 81% 7.1 mph N11.4 kmh N 9.8 mph15.8 kmh 29.98 in1015.2 mb 0.07 in1.8 mm 0.00 in0.0 mm 0.18 in4.6 mm
08:20 PM 49.1°F9.5°C 44.6°F7.0°C 81% 6.9 mph N11.1 kmh N 11.0 mph17.7 kmh 29.98 in1015.2 mb 0.07 in1.8 mm 0.00 in0.0 mm 0.18 in4.6 mm
08:25 PM 49.1°F9.5°C 44.6°F7.0°C 81% 6.9 mph N11.1 kmh N 11.0 mph17.7 kmh 29.98 in1015.2 mb 0.07 in1.8 mm 0.00 in0.0 mm 0.18 in4.6 mm
08:30 PM 49.1°F9.5°C 44.6°F7.0°C 81% 5.4 mph N8.7 kmh N 8.7 mph14.0 kmh 29.98 in1015.2 mb 0.07 in1.8 mm 0.00 in0.0 mm 0.18 in4.6 mm
08:35 PM 49.1°F9.5°C 44.6°F7.0°C 81% 4.2 mph N6.8 kmh N 8.1 mph13.0 kmh 29.98 in1015.2 mb 0.07 in1.8 mm 0.00 in0.0 mm 0.18 in4.6 mm
08:40 PM 49.1°F9.5°C 44.6°F7.0°C 81% 6.5 mph N10.5 kmh N 10.1 mph16.3 kmh 29.95 in1014.2 mb 0.07 in1.8 mm 0.00 in0.0 mm 0.18 in4.6 mm
08:45 PM 48.9°F9.4°C 42.8°F6.0°C 81% 7.0 mph N11.3 kmh N 11.0 mph17.7 kmh 29.95 in1014.2 mb 0.00 in0.0 mm 0.00 in0.0 mm 0.18 in4.6 mm
08:50 PM 49.1°F9.5°C 44.6°F7.0°C 81% 7.3 mph N11.7 kmh N 11.0 mph17.7 kmh 29.95 in1014.2 mb 0.00 in0.0 mm 0.00 in0.0 mm 0.18 in4.6 mm
08:55 PM 48.9°F9.4°C 42.8°F6.0°C 81% 7.6 mph N12.2 kmh N 12.3 mph19.8 kmh 29.95 in1014.2 mb 0.11 in2.8 mm 1.32 in33.5 mm 0.29 in7.4 mm
09:00 PM 48.9°F9.4°C 44.6°F7.0°C 82% 6.5 mph N10.5 kmh N 12.3 mph19.8 kmh 29.95 in1014.2 mb 0.11 in2.8 mm 0.00 in0.0 mm 0.29 in7.4 mm
09:05 PM 48.9°F9.4°C 42.8°F6.0°C 81% 6.5 mph NNW10.5 kmh NNW 10.7 mph17.2 kmh 29.95 in1014.2 mb 0.11 in2.8 mm 0.00 in0.0 mm 0.29 in7.4 mm
09:10 PM 48.9°F9.4°C 44.6°F7.0°C 82% 7.4 mph NNW11.9 kmh NNW 10.7 mph17.2 kmh 29.95 in1014.2 mb 0.11 in2.8 mm 0.00 in0.0 mm 0.29 in7.4 mm
09:15 PM 48.9°F9.4°C 44.6°F7.0°C 82% 7.4 mph N11.9 kmh N 10.1 mph16.3 kmh 29.95 in1014.2 mb 0.11 in2.8 mm 0.00 in0.0 mm 0.29 in7.4 mm
09:20 PM 48.9°F9.4°C 44.6°F7.0°C 82% 7.5 mph N12.1 kmh N 10.1 mph16.3 kmh 29.95 in1014.2 mb 0.11 in2.8 mm 0.00 in0.0 mm 0.29 in7.4 mm
09:25 PM 48.9°F9.4°C 44.6°F7.0°C 82% 7.1 mph N11.4 kmh N 17.0 mph27.4 kmh 29.95 in1014.2 mb 0.11 in2.8 mm 0.00 in0.0 mm 0.29 in7.4 mm
09:30 PM 48.9°F9.4°C 44.6°F7.0°C 82% 7.3 mph N11.7 kmh N 17.0 mph27.4 kmh 29.95 in1014.2 mb 0.11 in2.8 mm 0.00 in0.0 mm 0.29 in7.4 mm
09:35 PM 48.9°F9.4°C 44.6°F7.0°C 82% 8.1 mph N13.0 kmh N 12.3 mph19.8 kmh 29.95 in1014.2 mb 0.11 in2.8 mm 0.00 in0.0 mm 0.29 in7.4 mm
09:40 PM 48.9°F9.4°C 44.6°F7.0°C 82% 7.0 mph N11.3 kmh N 10.7 mph17.2 kmh 29.95 in1014.2 mb 0.11 in2.8 mm 0.00 in0.0 mm 0.29 in7.4 mm
09:45 PM 48.9°F9.4°C 44.6°F7.0°C 82% 5.9 mph N9.5 kmh N 10.7 mph17.2 kmh 29.95 in1014.2 mb 0.11 in2.8 mm 0.00 in0.0 mm 0.29 in7.4 mm
09:50 PM 48.9°F9.4°C 44.6°F7.0°C 82% 7.4 mph N11.9 kmh N 14.1 mph22.7 kmh 29.95 in1014.2 mb 0.17 in4.3 mm 0.72 in18.3 mm 0.35 in8.9 mm
09:55 PM 48.9°F9.4°C 44.6°F7.0°C 83% 9.5 mph N15.3 kmh N 14.1 mph22.7 kmh 29.95 in1014.2 mb 0.06 in1.5 mm 0.00 in0.0 mm 0.35 in8.9 mm
10:00 PM 48.9°F9.4°C 44.6°F7.0°C 83% 8.1 mph N13.0 kmh N 11.9 mph19.2 kmh 29.95 in1014.2 mb 0.06 in1.5 mm 0.00 in0.0 mm 0.35 in8.9 mm
10:05 PM 48.9°F9.4°C 44.6°F7.0°C 83% 6.2 mph N10.0 kmh N 10.5 mph16.9 kmh 29.95 in1014.2 mb 0.06 in1.5 mm 0.00 in0.0 mm 0.35 in8.9 mm
10:10 PM 48.9°F9.4°C 44.6°F7.0°C 83% 5.8 mph N9.3 kmh N 12.3 mph19.8 kmh 29.95 in1014.2 mb 0.06 in1.5 mm 0.00 in0.0 mm 0.35 in8.9 mm
10:15 PM 48.9°F9.4°C 44.6°F7.0°C 83% 8.1 mph N13.0 kmh N 15.4 mph24.8 kmh 29.95 in1014.2 mb 0.06 in1.5 mm 0.00 in0.0 mm 0.35 in8.9 mm
10:20 PM 48.9°F9.4°C 44.6°F7.0°C 83% 8.5 mph N13.7 kmh N 15.4 mph24.8 kmh 29.95 in1014.2 mb 0.06 in1.5 mm 0.00 in0.0 mm 0.35 in8.9 mm
10:25 PM 48.9°F9.4°C 44.6°F7.0°C 83% 8.5 mph NNE13.7 kmh NNE 15.4 mph24.8 kmh 29.92 in1013.2 mb 0.06 in1.5 mm 0.00 in0.0 mm 0.35 in8.9 mm
10:30 PM 48.9°F9.4°C 44.6°F7.0°C 83% 8.6 mph N13.8 kmh N 13.0 mph20.9 kmh 29.92 in1013.2 mb 0.06 in1.5 mm 0.00 in0.0 mm 0.35 in8.9 mm
10:35 PM 48.9°F9.4°C 44.6°F7.0°C 83% 7.8 mph N12.6 kmh N 11.0 mph17.7 kmh 29.92 in1013.2 mb 0.17 in4.3 mm 1.32 in33.5 mm 0.46 in11.7 mm
10:40 PM 48.9°F9.4°C 44.6°F7.0°C 83% 7.3 mph N11.7 kmh N 11.2 mph18.0 kmh 29.92 in1013.2 mb 0.17 in4.3 mm 0.00 in0.0 mm 0.46 in11.7 mm
10:45 PM 48.9°F9.4°C 44.6°F7.0°C 83% 7.3 mph N11.7 kmh N 12.1 mph19.5 kmh 29.92 in1013.2 mb 0.11 in2.8 mm 0.00 in0.0 mm 0.46 in11.7 mm
10:50 PM 48.9°F9.4°C 44.6°F7.0°C 83% 7.9 mph NNW12.7 kmh NNW 12.5 mph20.1 kmh 29.92 in1013.2 mb 0.11 in2.8 mm 0.00 in0.0 mm 0.46 in11.7 mm
10:55 PM 48.9°F9.4°C 44.6°F7.0°C 83% 8.2 mph NNW13.2 kmh NNW 12.5 mph20.1 kmh 29.92 in1013.2 mb 0.11 in2.8 mm 0.00 in0.0 mm 0.46 in11.7 mm
11:00 PM 48.9°F9.4°C 44.6°F7.0°C 83% 8.5 mph N13.7 kmh N 16.1 mph25.9 kmh 29.92 in1013.2 mb 0.11 in2.8 mm 0.00 in0.0 mm 0.46 in11.7 mm
11:05 PM 48.9°F9.4°C 44.6°F7.0°C 83% 9.4 mph N15.1 kmh N 16.1 mph25.9 kmh 29.92 in1013.2 mb 0.11 in2.8 mm 0.00 in0.0 mm 0.46 in11.7 mm
11:10 PM 49.1°F9.5°C 44.6°F7.0°C 83% 8.2 mph N13.2 kmh N 14.8 mph23.8 kmh 29.92 in1013.2 mb 0.11 in2.8 mm 0.00 in0.0 mm 0.46 in11.7 mm
11:15 PM 49.1°F9.5°C 44.6°F7.0°C 84% 7.8 mph NNE12.6 kmh NNE 14.8 mph23.8 kmh 29.92 in1013.2 mb 0.11 in2.8 mm 0.00 in0.0 mm 0.46 in11.7 mm
11:20 PM 49.1°F9.5°C 44.6°F7.0°C 84% 7.5 mph NNE12.1 kmh NNE 12.3 mph19.8 kmh 29.92 in1013.2 mb 0.11 in2.8 mm 0.00 in0.0 mm 0.46 in11.7 mm
11:25 PM 49.1°F9.5°C 44.6°F7.0°C 84% 7.9 mph NNE12.7 kmh NNE 12.3 mph19.8 kmh 29.92 in1013.2 mb 0.11 in2.8 mm 0.00 in0.0 mm 0.46 in11.7 mm
11:30 PM 49.1°F9.5°C 44.6°F7.0°C 84% 7.8 mph N12.6 kmh N 12.3 mph19.8 kmh 29.92 in1013.2 mb 0.11 in2.8 mm 0.00 in0.0 mm 0.46 in11.7 mm
11:35 PM 49.1°F9.5°C 44.6°F7.0°C 84% 6.7 mph NNW10.8 kmh NNW 8.1 mph13.0 kmh 29.92 in1013.2 mb 0.00 in0.0 mm 0.00 in0.0 mm 0.46 in11.7 mm
11:40 PM 49.1°F9.5°C 44.6°F7.0°C 84% 6.1 mph NNW9.8 kmh NNW 8.5 mph13.7 kmh 29.89 in1012.2 mb 0.00 in0.0 mm 0.00 in0.0 mm 0.46 in11.7 mm
11:45 PM 49.1°F9.5°C 44.6°F7.0°C 84% 6.6 mph N10.6 kmh N 13.0 mph20.9 kmh 29.89 in1012.2 mb 0.00 in0.0 mm 0.00 in0.0 mm 0.46 in11.7 mm
11:50 PM 49.3°F9.6°C 44.6°F7.0°C 84% 6.4 mph N10.3 kmh N 13.0 mph20.9 kmh 29.89 in1012.2 mb 0.00 in0.0 mm 0.00 in0.0 mm 0.46 in11.7 mm
11:55 PM 49.3°F9.6°C 44.6°F7.0°C 84% 6.1 mph NNW9.8 kmh NNW 10.5 mph16.9 kmh 29.89 in1012.2 mb 0.00 in0.0 mm 0.00 in0.0 mm 0.46 in11.7 mm